createdAt,value
2019-04-22T00:02:13.178Z,4.64
2019-04-22T00:07:48.727Z,5.89
2019-04-22T00:13:06.757Z,4.32
2019-04-22T00:18:54.763Z,6.09
2019-04-22T00:28:02.388Z,5.86
2019-04-22T00:37:02.850Z,6.05
2019-04-22T00:46:11.439Z,4.31
2019-04-22T00:51:54.936Z,6.21
2019-04-22T00:59:07.009Z,4.57
2019-04-22T01:08:39.071Z,6.44
2019-04-22T01:13:52.833Z,6.65
2019-04-22T01:19:35.082Z,7.10
2019-04-22T01:25:06.792Z,6.05
2019-04-22T01:31:36.622Z,7.20
2019-04-22T01:37:02.488Z,6.43
2019-04-22T01:48:44.897Z,7.30
2019-04-22T01:55:12.657Z,4.55
2019-04-22T02:04:35.432Z,5.75
2019-04-22T02:13:42.779Z,7.42
2019-04-22T02:24:58.860Z,7.39
2019-04-22T02:30:36.362Z,5.44
2019-04-22T02:36:56.199Z,7.17
2019-04-22T02:42:32.411Z,6.55
2019-04-22T02:52:35.403Z,6.89
2019-04-22T03:04:37.447Z,6.81
2019-04-22T03:12:02.610Z,7.10
2019-04-22T03:17:28.666Z,7.46
2019-04-22T03:36:05.799Z,6.61
2019-04-22T03:47:38.699Z,7.50
2019-04-22T03:53:09.438Z,6.24
2019-04-22T04:04:43.619Z,6.09
2019-04-22T04:16:10.744Z,7.34
2019-04-22T04:21:53.204Z,7.06
2019-04-22T04:44:53.377Z,6.30
2019-04-22T04:50:06.899Z,7.07
2019-04-22T04:59:45.721Z,6.35
2019-04-22T05:14:18.966Z,7.34
2019-04-22T05:32:59.643Z,5.44
2019-04-22T05:39:14.179Z,6.85
2019-04-22T05:44:48.046Z,6.95
2019-04-22T05:46:29.917Z,7.12
2019-04-22T05:53:19.567Z,5.66
2019-04-22T05:58:58.288Z,6.46
2019-04-22T06:04:25.501Z,5.01
2019-04-22T06:10:08.218Z,6.83
2019-04-22T06:15:30.084Z,6.93
2019-04-22T06:23:04.494Z,6.09
2019-04-22T06:28:42.755Z,4.97
2019-04-22T06:39:34.452Z,5.39
2019-04-22T06:45:15.583Z,4.99
2019-04-22T06:51:06.754Z,4.86
2019-04-22T06:56:52.767Z,6.39
2019-04-22T07:02:25.612Z,4.84
2019-04-22T07:09:17.920Z,4.95
2019-04-22T07:14:17.331Z,3.95
2019-04-22T07:19:58.477Z,4.59
2019-04-22T07:25:41.384Z,5.24
2019-04-22T07:31:20.503Z,5.01
2019-04-22T07:36:59.916Z,3.39
2019-04-22T07:44:31.217Z,3.84
2019-04-22T07:50:03.113Z,3.50
2019-04-22T07:55:39.678Z,3.78
2019-04-22T08:02:10.277Z,3.98
2019-04-22T08:07:34.612Z,2.56
2019-04-22T08:13:16.743Z,3.26
2019-04-22T08:20:48.725Z,3.17
2019-04-22T08:26:05.376Z,3.09
2019-04-22T08:31:48.677Z,3.01
2019-04-22T08:42:58.675Z,2.96
2019-04-22T08:48:30.895Z,3.00
2019-04-22T08:55:08.610Z,3.34
2019-04-22T09:01:17.773Z,3.36
2019-04-22T09:12:44.488Z,2.86
2019-04-22T09:18:08.427Z,1.66
2019-04-22T09:23:44.566Z,2.75
2019-04-22T09:29:12.785Z,2.01
2019-04-22T09:34:50.211Z,2.41
2019-04-22T09:40:15.652Z,2.83
2019-04-22T09:45:53.201Z,3.73
2019-04-22T09:51:25.733Z,3.08
2019-04-22T09:57:24.654Z,2.71
2019-04-22T10:02:47.121Z,3.16
2019-04-22T10:14:05.780Z,2.96
2019-04-22T10:19:37.258Z,3.03
2019-04-22T10:25:12.018Z,2.87
2019-04-22T10:32:46.304Z,2.96
2019-04-22T10:37:18.060Z,2.50
2019-04-22T10:41:40.858Z,3.24
2019-04-22T10:45:57.887Z,2.94
2019-04-22T10:50:04.909Z,2.22
2019-04-22T10:54:11.468Z,2.25
2019-04-22T10:58:20.757Z,2.63
2019-04-22T11:02:29.854Z,2.26
2019-04-22T11:07:07.134Z,2.46
2019-04-22T11:12:13.862Z,2.21
2019-04-22T11:18:25.368Z,2.15
2019-04-22T11:22:40.754Z,2.54
2019-04-22T11:26:54.911Z,1.76
2019-04-22T11:32:58.483Z,1.45
2019-04-22T11:36:58.978Z,2.63
2019-04-22T11:41:07.291Z,1.65
2019-04-22T11:45:21.540Z,1.84
2019-04-22T11:49:27.889Z,1.71
2019-04-22T11:53:34.436Z,1.96
2019-04-22T11:58:21.212Z,2.26
2019-04-22T12:02:33.009Z,1.87
2019-04-22T12:06:41.944Z,2.01
2019-04-22T12:11:06.097Z,2.28
2019-04-22T12:15:49.138Z,2.45
2019-04-22T12:20:18.386Z,2.09
2019-04-22T12:24:28.142Z,2.22
2019-04-22T12:28:35.147Z,2.73
2019-04-22T12:32:48.542Z,2.15
2019-04-22T12:36:56.332Z,2.10
2019-04-22T12:42:02.682Z,2.34
2019-04-22T12:46:16.325Z,1.85
2019-04-22T12:50:44.466Z,2.15
2019-04-22T12:54:58.509Z,2.36
2019-04-22T13:00:05.801Z,2.69
2019-04-22T13:04:25.244Z,2.03
2019-04-22T13:08:39.257Z,2.58
2019-04-22T13:13:02.767Z,1.84
2019-04-22T13:17:08.154Z,2.19
2019-04-22T13:21:20.538Z,2.42
2019-04-22T13:25:34.731Z,2.52
2019-04-22T13:29:53.037Z,2.20
2019-04-22T13:34:37.522Z,2.33
2019-04-22T13:39:02.987Z,2.17
2019-04-22T13:43:09.064Z,1.89
2019-04-22T13:48:31.144Z,2.20
2019-04-22T13:54:42.365Z,2.21
2019-04-22T13:59:27.154Z,2.44
2019-04-22T14:04:10.340Z,2.24
2019-04-22T14:08:24.986Z,2.28
2019-04-22T14:15:06.320Z,1.79
2019-04-22T14:19:05.658Z,2.06
2019-04-22T14:23:17.373Z,2.49
2019-04-22T14:28:06.317Z,2.30
2019-04-22T14:32:55.940Z,1.99
2019-04-22T14:37:05.716Z,2.14
2019-04-22T14:42:39.535Z,2.01
2019-04-22T14:48:22.584Z,1.94
2019-04-22T14:53:44.840Z,1.80
2019-04-22T14:58:02.394Z,2.10
2019-04-22T15:04:05.465Z,2.19
2019-04-22T15:08:17.294Z,1.72
2019-04-22T15:12:54.923Z,1.90
2019-04-22T15:18:21.997Z,1.91
2019-04-22T15:22:42.205Z,1.50
2019-04-22T15:27:16.288Z,1.62
2019-04-22T15:31:24.797Z,1.45
2019-04-22T15:35:33.580Z,2.36
2019-04-22T15:39:39.556Z,1.81
2019-04-22T15:45:43.306Z,1.77
2019-04-22T15:49:47.866Z,2.36
2019-04-22T15:54:58.388Z,1.99
2019-04-22T15:59:45.166Z,2.03
2019-04-22T16:04:56.888Z,2.06
2019-04-22T16:09:06.795Z,2.15
2019-04-22T16:13:34.045Z,1.89
2019-04-22T16:17:50.816Z,1.79
2019-04-22T16:22:24.972Z,1.72
2019-04-22T16:26:56.099Z,2.27
2019-04-22T16:31:15.408Z,1.73
2019-04-22T16:35:26.788Z,1.75
2019-04-22T16:39:36.533Z,1.76
2019-04-22T16:44:42.995Z,2.24
2019-04-22T16:48:49.680Z,2.17
2019-04-22T16:53:02.038Z,1.80
2019-04-22T16:59:04.514Z,2.32
2019-04-22T17:04:12.437Z,1.70
2019-04-22T17:08:32.877Z,2.08
2019-04-22T17:13:20.680Z,1.78
2019-04-22T17:17:39.182Z,2.24
2019-04-22T17:21:49.962Z,2.29
2019-04-22T17:26:02.694Z,2.05
2019-04-22T17:30:12.457Z,1.59
2019-04-22T17:34:21.263Z,2.50
2019-04-22T17:40:02.349Z,1.34
2019-04-22T17:45:56.027Z,1.52
2019-04-22T17:57:18.649Z,1.69
2019-04-22T18:03:53.218Z,2.42
2019-04-22T18:09:19.416Z,2.67
2019-04-22T18:16:48.863Z,3.16
2019-04-22T18:25:59.122Z,2.70
2019-04-22T18:35:14.310Z,2.95
2019-04-22T18:40:31.049Z,4.61
2019-04-22T18:47:55.024Z,3.64
2019-04-22T18:57:46.296Z,3.71
2019-04-22T19:04:27.712Z,4.34
2019-04-22T19:10:27.375Z,4.85
2019-04-22T19:15:43.236Z,4.37
2019-04-22T19:23:14.232Z,4.21
2019-04-22T19:28:49.740Z,5.29
2019-04-22T19:34:20.513Z,3.67
2019-04-22T19:40:03.523Z,2.26
2019-04-22T19:45:15.808Z,3.25
2019-04-22T19:51:01.496Z,1.72
2019-04-22T20:03:03.623Z,2.03
2019-04-22T20:10:51.102Z,2.19
2019-04-22T20:15:58.282Z,2.21
2019-04-22T20:21:40.565Z,1.85
2019-04-22T20:27:13.689Z,2.08
2019-04-22T20:33:44.410Z,2.24
2019-04-22T20:39:06.458Z,2.31
2019-04-22T20:46:39.410Z,2.84
2019-04-22T20:52:23.978Z,2.66
2019-04-22T20:59:37.135Z,2.59
2019-04-22T21:04:28.509Z,3.29
2019-04-22T21:11:57.769Z,3.04
2019-04-22T21:19:35.215Z,3.25
2019-04-22T21:24:52.294Z,3.98
2019-04-22T21:30:34.216Z,3.31
2019-04-22T21:39:54.486Z,2.10
2019-04-22T21:45:32.254Z,3.70
2019-04-22T21:55:03.865Z,3.71
2019-04-22T22:02:24.872Z,4.49
2019-04-22T22:07:09.738Z,4.28
2019-04-22T22:12:59.212Z,4.41
